AirportWindKnotsOPERATIONSMETAR
KBWI220715R(D) 10(A) 15L(A/D)-PROPS KBWI 201554Z 22007KT 10SM FEW150 SCT200 SCT250 11/M06 A3000 RMK AO2 SLP159 T01111061
KDCA180719 (D/A) 15 (D/A)-RJ/PROPS KDCA 201552Z 18007KT 10SM FEW150 SCT250 07/M07 A3004 RMK AO2 SLP172 T00671067
KIAD200530 (D) 19L/19C/19R (A) KIAD 201552Z 20005KT 10SM FEW150 SCT250 09/M07 A3002 RMK AO2 SLP168 T00941067
KRDU290523L/23R (D/A) KRDU 201551Z 29005KT 10SM FEW250 07/M04 A3020 RMK AO2 SLP226 T00721044



The information contained on all pages of this website is to be used for flight simulation purposes only on the VATSIM network. It is not intended nor should it be used for real world navigation.This site is not affiliated with the FAA, the actual Washington Center or any governing aviation body. All content contained herein is approved only for use on the VATSIM network. ©2016 Virtual Washington ARTCC -- Source Code © 2016-2017 R. Rump, R. Murphy, W. Guisbond. Some scripts provided by VATEUD and VATUSA. Logo icons created by the Noun Project, CC 17.